Time;durP1;ratioP1;P1;durP2;ratioP2;P2;SDS_P1;SDS_P2;PMS_P1;PMS_P2;Temp;Humidity;BMP_temperature;BMP_pressure;BME280_temperature;BME280_humidity;BME280_pressure;Samples;Min_cycle;Max_cycle;Signal;HPM_P1;HPM_P2
2022/07/19 00:00:32;;;;;;;3.78;2.00;;;;;;;17.08;72.98;100492.97;5013584;28;20045;-80
2022/07/19 00:02:57;;;;;;;3.55;2.00;;;;;;;16.95;73.99;100495.19;5013311;28;20557;-80
2022/07/19 00:05:23;;;;;;;3.35;2.15;;;;;;;16.90;74.64;100499.41;5013468;28;20544;-84
2022/07/19 00:07:49;;;;;;;3.05;2.00;;;;;;;16.91;74.36;100486.94;5030345;28;20041;-84
2022/07/19 00:10:16;;;;;;;3.30;1.90;;;;;;;16.88;73.75;100489.91;4997122;28;20049;-84
2022/07/19 00:12:42;;;;;;;3.70;2.00;;;;;;;16.90;73.29;100488.19;5014262;28;20517;-83
2022/07/19 00:15:10;;;;;;;3.47;2.00;;;;;;;16.94;72.01;100488.81;5031289;28;20535;-84
2022/07/19 00:17:40;;;;;;;4.97;1.90;;;;;;;16.87;72.38;100494.72;5013136;28;20411;-84
2022/07/19 00:20:06;;;;;;;3.85;2.08;;;;;;;16.84;73.77;100483.69;4996839;28;20128;-83
2022/07/19 00:22:32;;;;;;;3.65;1.90;;;;;;;16.74;73.93;100496.94;5031055;28;20045;-84
2022/07/19 00:24:57;;;;;;;3.83;1.95;;;;;;;16.66;75.34;100490.84;5013138;28;20044;-80
2022/07/19 00:27:23;;;;;;;4.28;2.00;;;;;;;16.61;74.58;100491.50;4997696;28;20419;-80
2022/07/19 00:29:49;;;;;;;4.40;1.98;;;;;;;16.61;75.96;100488.69;5013094;28;20045;-80
2022/07/19 00:32:15;;;;;;;4.82;2.00;;;;;;;16.64;75.19;100487.75;5031011;28;20037;-80
2022/07/19 00:34:40;;;;;;;2.45;1.92;;;;;;;16.63;75.06;100485.41;5012958;28;20128;-80
2022/07/19 00:37:06;;;;;;;3.33;1.90;;;;;;;16.63;74.69;100489.00;4980523;28;20497;-80
2022/07/19 00:39:31;;;;;;;2.92;1.98;;;;;;;16.59;74.81;100485.56;5013422;28;20053;-80
2022/07/19 00:41:57;;;;;;;2.78;1.80;;;;;;;16.53;74.21;100493.03;5041017;28;20405;-84
2022/07/19 00:44:23;;;;;;;5.10;1.92;;;;;;;16.42;73.19;100495.50;5016263;28;20033;-83
2022/07/19 00:46:49;;;;;;;4.00;2.13;;;;;;;16.38;74.57;100494.88;5050270;28;20406;-84
2022/07/19 00:49:14;;;;;;;3.20;1.98;;;;;;;16.37;75.47;100490.53;5032536;28;20056;-84
2022/07/19 00:51:40;;;;;;;3.58;2.08;;;;;;;16.41;75.77;100496.75;5032473;28;20079;-84
2022/07/19 00:54:08;;;;;;;3.88;2.20;;;;;;;16.32;76.23;100499.53;5032679;28;20053;-84
2022/07/19 00:56:34;;;;;;;3.10;2.03;;;;;;;16.34;74.97;100497.03;5023500;28;20475;-84
2022/07/19 00:59:02;;;;;;;4.70;2.10;;;;;;;16.25;76.21;100494.25;5012992;28;20049;-84
2022/07/19 01:04:10;;;;;;;4.45;1.98;;;;;;;16.07;77.91;100503.38;5039454;28;20128;-79
2022/07/19 01:06:36;;;;;;;3.03;2.03;;;;;;;16.10;78.29;100493.28;5032546;28;20416;-79
2022/07/19 01:09:02;;;;;;;3.20;1.80;;;;;;;16.06;78.15;100498.25;5032614;28;20033;-79
2022/07/19 01:11:28;;;;;;;3.72;2.03;;;;;;;15.91;81.46;100497.28;5033248;28;20051;-79
2022/07/19 01:13:53;;;;;;;4.57;2.10;;;;;;;15.78;82.27;100500.97;5033248;28;20038;-79
2022/07/19 01:16:19;;;;;;;4.20;2.30;;;;;;;15.75;81.79;100504.72;5033115;28;20128;-79
2022/07/19 01:18:45;;;;;;;4.70;1.85;;;;;;;15.73;80.35;100493.19;5032842;28;20041;-81
2022/07/19 01:21:30;;;;;;;3.85;1.90;;;;;;;15.75;80.04;100504.72;5043381;28;20041;-79
2022/07/19 01:23:56;;;;;;;3.92;1.90;;;;;;;15.77;78.39;100499.41;5013035;28;20049;-79
2022/07/19 01:26:21;;;;;;;4.43;1.95;;;;;;;15.72;77.64;100502.06;5013243;28;20053;-79
2022/07/19 01:28:47;;;;;;;5.22;2.00;;;;;;;15.75;77.44;100501.13;5012884;28;20033;-79
2022/07/19 01:31:13;;;;;;;5.80;2.00;;;;;;;15.71;77.92;100498.47;5030595;28;20110;-79
2022/07/19 01:33:40;;;;;;;4.03;2.00;;;;;;;15.67;78.50;100492.25;5012993;28;20406;-79
2022/07/19 01:36:06;;;;;;;3.50;1.83;;;;;;;15.63;77.69;100486.03;5031525;28;20196;-79
2022/07/19 01:38:31;;;;;;;2.83;1.90;;;;;;;15.62;77.83;100497.66;5050548;28;20529;-79
2022/07/19 01:40:58;;;;;;;3.75;2.03;;;;;;;15.58;78.45;100495.00;5032637;28;20037;-79
2022/07/19 01:43:23;;;;;;;4.15;1.98;;;;;;;15.57;77.25;100473.88;5032408;28;20045;-79
2022/07/19 01:45:49;;;;;;;3.28;1.90;;;;;;;15.62;76.60;100492.84;5050727;28;20057;-79
2022/07/19 01:48:15;;;;;;;3.47;2.15;;;;;;;15.59;76.87;100488.19;5032426;28;20040;-79
2022/07/19 01:50:40;;;;;;;3.40;2.08;;;;;;;15.57;78.04;100493.44;5050677;28;20045;-79
2022/07/19 01:53:06;;;;;;;6.43;1.90;;;;;;;15.51;78.79;100492.50;5050070;28;20043;-80
2022/07/19 01:55:31;;;;;;;4.97;1.90;;;;;;;15.44;79.56;100486.38;5036018;28;20536;-80
2022/07/19 01:57:57;;;;;;;5.32;2.00;;;;;;;15.40;79.68;100492.13;5036305;28;20033;-80
2022/07/19 02:00:23;;;;;;;3.20;1.75;;;;;;;15.34;80.24;100482.75;5036199;28;20798;-80
2022/07/19 02:02:49;;;;;;;3.80;1.90;;;;;;;15.35;81.43;100487.13;5053610;28;20098;-80
2022/07/19 02:05:14;;;;;;;2.75;1.85;;;;;;;15.32;81.51;100486.03;5053772;28;20045;-80
2022/07/19 02:07:40;;;;;;;3.13;1.90;;;;;;;15.31;82.33;100487.25;5053627;28;20059;-80
2022/07/19 02:10:07;;;;;;;3.58;2.00;;;;;;;15.33;81.05;100486.78;5053531;28;20052;-79
2022/07/19 02:12:32;;;;;;;3.25;1.90;;;;;;;15.32;80.47;100482.47;5036056;28;20048;-80
2022/07/19 02:14:58;;;;;;;3.30;2.03;;;;;;;15.29;80.71;100478.53;5036082;28;20052;-80
2022/07/19 02:17:23;;;;;;;3.15;1.98;;;;;;;15.32;80.88;100485.25;5053418;28;20141;-80
2022/07/19 02:19:49;;;;;;;4.78;2.10;;;;;;;15.32;82.10;100482.47;5035734;28;20405;-80
2022/07/19 02:22:15;;;;;;;3.28;1.83;;;;;;;15.29;80.43;100486.16;5035453;28;20088;-80
2022/07/19 02:24:42;;;;;;;3.47;2.13;;;;;;;15.24;80.99;100483.97;5035950;28;20061;-80
2022/07/19 02:27:11;;;;;;;3.63;1.98;;;;;;;15.22;81.96;100489.22;5053539;28;20048;-80
2022/07/19 02:29:37;;;;;;;3.67;2.13;;;;;;;15.22;81.50;100489.22;5035441;28;20044;-80
2022/07/19 02:32:03;;;;;;;4.60;2.10;;;;;;;15.26;83.10;100487.06;5053558;28;20183;-80
2022/07/19 02:34:28;;;;;;;3.05;2.03;;;;;;;15.24;83.89;100492.34;5035416;28;20116;-79
2022/07/19 02:36:53;;;;;;;3.45;2.00;;;;;;;15.19;83.64;100479.75;5035768;28;20033;-79
2022/07/19 02:39:19;;;;;;;3.78;2.00;;;;;;;15.19;84.17;100481.75;5052899;28;20624;-79
2022/07/19 02:41:45;;;;;;;3.70;2.13;;;;;;;15.17;84.50;100487.00;5053397;28;20055;-79
2022/07/19 02:44:10;;;;;;;2.78;1.90;;;;;;;15.12;83.91;100490.44;5053006;28;20103;-79
2022/07/19 02:46:36;;;;;;;3.10;1.98;;;;;;;15.01;84.82;100481.66;5053409;28;20036;-79
2022/07/19 02:49:01;;;;;;;5.35;2.13;;;;;;;15.04;83.56;100495.50;5035114;28;20391;-79
2022/07/19 02:51:27;;;;;;;4.32;2.20;;;;;;;15.02;83.81;100494.38;5052628;28;20045;-79
2022/07/19 02:53:52;;;;;;;5.00;2.08;;;;;;;15.02;83.56;100497.19;5053022;28;20040;-79
2022/07/19 02:56:18;;;;;;;3.00;1.90;;;;;;;14.93;83.01;100498.69;5035140;28;20045;-79
2022/07/19 02:58:43;;;;;;;4.00;2.20;;;;;;;14.88;82.53;100490.88;5052693;28;20040;-79
2022/07/19 03:01:09;;;;;;;4.20;1.90;;;;;;;14.81;82.11;100485.56;5035224;28;20481;-78
2022/07/19 03:03:44;;;;;;;3.45;1.92;;;;;;;14.77;82.40;100493.28;5048073;28;20056;-78
2022/07/19 03:06:11;;;;;;;4.38;2.10;;;;;;;14.67;83.81;100497.28;5010304;28;20165;-81
2022/07/19 03:08:37;;;;;;;3.63;1.98;;;;;;;14.62;84.48;100492.25;5028185;28;20029;-80
2022/07/19 03:11:02;;;;;;;4.15;2.00;;;;;;;14.69;83.97;100488.41;5019610;28;20042;-80
2022/07/19 03:13:28;;;;;;;5.78;1.88;;;;;;;14.64;84.61;100491.81;5031218;28;20470;-80
2022/07/19 03:15:54;;;;;;;2.60;1.70;;;;;;;14.58;84.70;100497.19;5031662;28;20509;-80
2022/07/19 03:18:19;;;;;;;4.40;1.98;;;;;;;14.53;83.99;100496.97;5031109;28;20048;-80
2022/07/19 03:20:45;;;;;;;2.97;1.85;;;;;;;14.53;84.23;100506.13;5014270;28;20045;-80
2022/07/19 03:23:10;;;;;;;2.85;1.85;;;;;;;14.56;83.46;100501.69;5030942;28;20044;-80
2022/07/19 03:25:36;;;;;;;3.58;1.80;;;;;;;14.52;82.85;100492.66;5032558;28;20065;-81
2022/07/19 03:28:01;;;;;;;4.15;1.73;;;;;;;14.44;84.86;100500.47;5032506;28;20044;-80
2022/07/19 03:30:27;;;;;;;6.82;2.65;;;;;;;14.51;83.87;100500.25;5032580;28;20453;-80
2022/07/19 03:32:53;;;;;;;5.97;2.22;;;;;;;14.60;83.56;100500.28;5032620;28;20041;-80
2022/07/19 03:35:22;;;;;;;4.95;2.42;;;;;;;14.64;83.01;100500.19;5030983;28;20044;-81
2022/07/19 03:37:47;;;;;;;2.83;1.80;;;;;;;14.65;83.43;100504.53;5031634;28;20152;-81
2022/07/19 03:40:13;;;;;;;3.45;2.28;;;;;;;14.70;82.66;100493.56;5031610;28;20125;-82
2022/07/19 03:42:39;;;;;;;6.28;1.90;;;;;;;14.72;84.40;100498.69;5032232;28;20535;-82
2022/07/19 03:45:05;;;;;;;4.60;2.05;;;;;;;14.78;84.08;100502.44;5030999;28;20034;-81
2022/07/19 03:47:30;;;;;;;3.70;1.92;;;;;;;14.80;84.44;100509.13;5031771;28;20107;-81
2022/07/19 03:49:57;;;;;;;4.03;1.80;;;;;;;14.78;84.34;100500.44;5032092;28;20037;-81
2022/07/19 03:52:23;;;;;;;5.28;2.28;;;;;;;14.78;84.96;100502.44;5030138;28;20221;-81
2022/07/19 03:54:48;;;;;;;3.03;1.85;;;;;;;14.71;84.97;100502.72;5030570;28;20049;-81
2022/07/19 03:57:14;;;;;;;4.28;1.90;;;;;;;14.71;84.72;100509.09;5030663;28;20049;-81
2022/07/19 03:59:39;;;;;;;4.82;1.98;;;;;;;14.65;85.26;100516.47;5029276;28;20114;-80
2022/07/19 04:02:05;;;;;;;2.53;1.92;;;;;;;14.68;83.70;100515.56;5013341;28;20050;-81
2022/07/19 04:04:31;;;;;;;3.88;1.73;;;;;;;14.67;85.55;100516.81;5030188;28;20513;-81
2022/07/19 04:06:57;;;;;;;3.72;2.25;;;;;;;14.67;85.09;100516.81;5013789;28;20046;-81
2022/07/19 04:09:23;;;;;;;3.67;1.90;;;;;;;14.63;84.94;100518.94;5013305;28;20116;-81
2022/07/19 04:11:49;;;;;;;3.55;2.28;;;;;;;14.71;84.51;100513.88;5046002;28;20036;-81
2022/07/19 04:14:14;;;;;;;3.75;2.00;;;;;;;14.78;83.55;100522.78;5051433;28;20499;-81
2022/07/19 04:16:40;;;;;;;2.55;1.80;;;;;;;14.78;84.29;100514.41;5033937;28;20055;-81
2022/07/19 04:19:06;;;;;;;4.93;2.22;;;;;;;14.83;84.74;100513.84;5051188;28;20565;-81
2022/07/19 04:21:31;;;;;;;4.63;1.90;;;;;;;14.98;83.52;100527.25;5051281;28;20115;-81
2022/07/19 04:23:57;;;;;;;2.95;1.80;;;;;;;15.08;83.51;100537.28;5030261;28;20429;-81
2022/07/19 04:26:23;;;;;;;4.80;2.00;;;;;;;15.15;83.36;100537.78;5013634;28;20037;-81
2022/07/19 04:28:48;;;;;;;2.25;1.83;;;;;;;15.27;84.00;100541.75;5030266;28;20418;-82
2022/07/19 04:31:14;;;;;;;9.60;2.42;;;;;;;15.33;84.69;100542.69;5031306;28;20497;-81
2022/07/19 04:33:40;;;;;;;3.17;2.20;;;;;;;15.39;84.27;100543.66;4997388;28;20052;-81
2022/07/19 04:36:06;;;;;;;5.15;2.40;;;;;;;15.36;83.52;100537.00;5013933;28;20407;-81
2022/07/19 04:38:31;;;;;;;5.72;2.30;;;;;;;15.46;83.15;100534.22;5030055;28;20041;-81
2022/07/19 04:40:57;;;;;;;5.05;2.40;;;;;;;15.47;82.70;100530.97;5051329;28;20051;-81
2022/07/19 04:43:22;;;;;;;4.00;2.30;;;;;;;15.51;81.93;100528.06;5050922;28;20075;-81
2022/07/19 04:45:48;;;;;;;4.50;2.20;;;;;;;15.55;81.71;100535.09;5033374;28;20509;-81
2022/07/19 04:48:13;;;;;;;4.68;2.00;;;;;;;15.59;81.61;100540.53;5050958;28;20103;-81
2022/07/19 04:50:40;;;;;;;5.00;2.20;;;;;;;15.61;81.23;100538.06;5016957;28;20103;-81
2022/07/19 04:53:05;;;;;;;4.40;2.20;;;;;;;15.69;80.89;100544.94;5050570;28;20489;-81
2022/07/19 04:55:31;;;;;;;6.07;2.38;;;;;;;15.72;80.74;100532.81;5050906;28;20036;-82
2022/07/19 04:57:57;;;;;;;6.18;3.08;;;;;;;15.85;80.56;100541.91;5033062;28;20073;-81
2022/07/19 05:00:23;;;;;;;5.15;3.03;;;;;;;15.93;79.90;100534.00;5029816;28;20053;-81
2022/07/19 05:02:49;;;;;;;9.23;2.70;;;;;;;16.06;79.39;100534.63;5013156;28;20207;-80
2022/07/19 05:05:14;;;;;;;6.13;2.50;;;;;;;16.16;78.70;100536.22;5013513;28;20053;-80
2022/07/19 05:07:41;;;;;;;8.90;2.67;;;;;;;16.31;79.38;100525.97;5027356;28;20383;-79
2022/07/19 05:10:07;;;;;;;6.88;2.15;;;;;;;16.48;78.66;100529.25;5016554;28;20083;-80
2022/07/19 05:12:33;;;;;;;6.10;2.42;;;;;;;16.63;78.48;100533.03;5050708;28;20049;-81
2022/07/19 05:14:59;;;;;;;3.63;2.30;;;;;;;16.81;77.90;100535.84;5050725;28;20064;-81
2022/07/19 05:17:25;;;;;;;7.90;2.40;;;;;;;16.97;77.57;100517.91;5050767;28;20567;-82
2022/07/19 05:19:50;;;;;;;4.25;2.60;;;;;;;17.20;77.02;100523.63;5033019;28;20515;-82
2022/07/19 05:22:16;;;;;;;6.43;2.20;;;;;;;17.44;75.74;100525.75;5050565;28;20039;-82
2022/07/19 05:24:42;;;;;;;5.40;2.33;;;;;;;17.53;74.98;100529.28;5032928;28;20039;-82
2022/07/19 05:27:07;;;;;;;5.60;2.30;;;;;;;17.67;75.30;100528.63;5032839;28;20494;-82
2022/07/19 05:29:33;;;;;;;5.97;2.10;;;;;;;17.80;74.29;100516.41;5052357;28;20033;-82
2022/07/19 05:31:58;;;;;;;4.97;2.00;;;;;;;17.98;73.95;100524.75;5054619;28;20414;-82
2022/07/19 05:34:24;;;;;;;3.67;1.95;;;;;;;18.07;73.39;100525.50;5054114;28;20029;-82
2022/07/19 05:36:49;;;;;;;6.80;2.03;;;;;;;18.27;72.82;100527.72;5054172;28;20041;-82
2022/07/19 05:39:15;;;;;;;4.55;2.10;;;;;;;18.53;72.28;100531.59;5036346;28;20036;-81
2022/07/19 05:41:41;;;;;;;3.45;2.00;;;;;;;18.77;71.64;100530.78;5054469;28;20450;-81
2022/07/19 05:44:06;;;;;;;11.48;2.20;;;;;;;19.06;71.02;100530.81;5020140;28;20045;-82
2022/07/19 05:46:32;;;;;;;4.82;1.63;;;;;;;19.44;70.06;100530.78;5054180;28;20049;-80
2022/07/19 05:48:58;;;;;;;4.85;1.90;;;;;;;19.79;69.17;100524.38;5019973;28;20033;-81
2022/07/19 05:51:23;;;;;;;4.88;1.90;;;;;;;20.18;68.20;100520.09;5036174;28;20041;-80
2022/07/19 05:53:49;;;;;;;5.20;1.80;;;;;;;20.48;67.13;100518.72;5036171;28;20049;-81
2022/07/19 05:56:14;;;;;;;4.22;1.90;;;;;;;20.94;65.82;100520.78;5036286;28;20131;-81
2022/07/19 05:58:40;;;;;;;4.22;1.95;;;;;;;21.31;63.70;100530.13;5035906;28;20068;-81
2022/07/19 06:01:17;;;;;;;7.57;2.33;;;;;;;21.61;63.55;100524.22;5036213;28;20398;-81
2022/07/19 06:03:44;;;;;;;13.98;3.40;;;;;;;22.00;61.39;100522.47;5053725;28;20044;-81
2022/07/19 06:06:10;;;;;;;12.93;2.88;;;;;;;22.19;60.98;100523.63;5018791;28;20478;-80
2022/07/19 06:08:35;;;;;;;5.68;2.30;;;;;;;22.35;60.57;100530.63;5052185;28;20037;-82
2022/07/19 06:11:01;;;;;;;9.45;2.60;;;;;;;22.53;60.13;100518.88;5015873;28;20041;-82
2022/07/19 06:13:29;;;;;;;10.20;2.65;;;;;;;22.78;59.85;100528.50;5045570;28;20039;-82
2022/07/19 06:15:54;;;;;;;13.27;2.70;;;;;;;23.03;58.86;100521.88;5053946;28;20049;-82
2022/07/19 06:18:20;;;;;;;5.65;2.15;;;;;;;23.21;58.53;100515.72;5018765;28;20036;-82
2022/07/19 06:20:48;;;;;;;5.97;2.33;;;;;;;23.48;57.09;100522.72;5053715;28;20483;-82
2022/07/19 06:23:13;;;;;;;13.77;3.47;;;;;;;23.61;55.76;100514.50;5053417;28;20041;-81
2022/07/19 06:25:40;;;;;;;18.40;3.22;;;;;;;23.77;56.09;100520.66;5035482;28;20084;-81
2022/07/19 06:28:05;;;;;;;27.63;3.22;;;;;;;24.05;55.18;100510.03;5035706;28;20040;-81
2022/07/19 06:30:31;;;;;;;21.15;3.28;;;;;;;24.32;54.90;100509.19;5035741;28;20041;-81
2022/07/19 06:32:56;;;;;;;7.63;2.05;;;;;;;24.53;52.64;100512.47;5053680;28;20045;-81
2022/07/19 06:35:22;;;;;;;11.30;2.30;;;;;;;24.69;52.27;100503.09;5035641;28;20045;-81
2022/07/19 06:37:47;;;;;;;5.50;2.20;;;;;;;24.99;51.45;100501.13;5019356;28;20063;-80
2022/07/19 06:40:13;;;;;;;6.47;2.00;;;;;;;25.33;50.72;100506.56;5035239;28;20037;-81
2022/07/19 06:42:38;;;;;;;6.88;2.05;;;;;;;25.60;50.37;100504.84;5019077;28;20081;-81
2022/07/19 06:45:05;;;;;;;4.07;2.13;;;;;;;25.76;48.10;100510.34;5035491;28;20053;-81
2022/07/19 06:47:32;;;;;;;5.25;2.20;;;;;;;25.91;48.47;100507.09;5018615;28;20071;-81
2022/07/19 06:49:58;;;;;;;6.55;1.80;;;;;;;25.80;48.04;100507.97;5053400;28;20413;-81
2022/07/19 06:52:24;;;;;;;5.90;1.92;;;;;;;25.65;49.96;100513.28;5035245;28;20037;-81
2022/07/19 06:54:50;;;;;;;3.72;1.90;;;;;;;25.88;50.59;100514.59;5052700;28;20045;-81
2022/07/19 06:57:16;;;;;;;9.90;2.72;;;;;;;26.15;49.13;100503.47;5035127;28;20099;-81
2022/07/19 06:59:41;;;;;;;5.55;1.90;;;;;;;26.49;49.69;100515.25;5052518;28;20037;-79
2022/07/19 07:02:07;;;;;;;8.93;2.15;;;;;;;26.74;48.95;100508.97;5035414;28;20117;-81
2022/07/19 07:04:32;;;;;;;8.85;2.58;;;;;;;26.93;49.40;100513.91;5015118;28;20490;-81
2022/07/19 07:06:58;;;;;;;8.35;2.40;;;;;;;27.22;49.40;100516.56;5015414;28;20106;-81
2022/07/19 07:09:23;;;;;;;10.15;2.35;;;;;;;27.31;49.12;100518.22;5039137;28;20078;-81
2022/07/19 07:11:49;;;;;;;10.48;2.90;;;;;;;27.48;48.72;100515.91;5018129;28;20049;-81
2022/07/19 07:14:15;;;;;;;10.27;2.97;;;;;;;27.60;47.44;100514.41;5034909;28;20040;-81
2022/07/19 07:16:40;;;;;;;6.03;2.25;;;;;;;27.92;46.63;100519.28;5018376;28;20053;-81
2022/07/19 07:19:06;;;;;;;6.70;2.20;;;;;;;28.18;46.40;100520.13;5034541;28;20044;-81
2022/07/19 07:21:34;;;;;;;7.15;2.35;;;;;;;28.36;45.18;100509.88;5017936;28;20104;-81
2022/07/19 07:24:04;;;;;;;5.97;2.10;;;;;;;28.30;47.12;100523.50;5018333;28;20037;-81
2022/07/19 07:26:30;;;;;;;6.43;2.00;;;;;;;28.22;44.88;100516.94;5017918;28;20136;-82
2022/07/19 07:28:55;;;;;;;6.97;2.33;;;;;;;28.43;44.98;100525.59;5001805;28;20513;-81
2022/07/19 07:31:21;;;;;;;5.35;2.38;;;;;;;28.42;43.70;100518.34;5001522;28;20080;-81
2022/07/19 07:33:47;;;;;;;4.28;2.15;;;;;;;28.54;42.60;100522.50;5034616;28;20025;-81
2022/07/19 07:36:12;;;;;;;7.65;2.20;;;;;;;28.23;43.53;100527.78;5034384;28;20048;-80
2022/07/19 07:38:38;;;;;;;5.10;2.20;;;;;;;28.50;43.41;100519.22;5033661;28;20040;-81
2022/07/19 07:41:04;;;;;;;6.70;2.33;;;;;;;28.60;41.96;100521.03;5034463;28;20065;-81
2022/07/19 07:43:30;;;;;;;6.18;2.67;;;;;;;28.71;40.73;100517.97;5051972;28;20490;-81
2022/07/19 07:45:55;;;;;;;4.43;2.15;;;;;;;28.37;41.06;100520.00;5034387;28;20079;-81
2022/07/19 07:48:21;;;;;;;4.13;2.42;;;;;;;28.28;41.10;100531.84;5000642;28;20049;-82
2022/07/19 07:50:47;;;;;;;5.07;2.38;;;;;;;28.20;41.58;100525.25;5033851;28;20387;-81
2022/07/19 07:53:12;;;;;;;5.05;2.40;;;;;;;28.11;43.91;100517.13;5051144;28;20116;-81
2022/07/19 07:55:39;;;;;;;5.15;2.42;;;;;;;28.34;41.34;100518.25;5051265;28;20036;-80
2022/07/19 07:58:09;;;;;;;5.35;2.28;;;;;;;28.40;40.59;100513.19;5034040;28;20128;-80
2022/07/19 08:00:36;;;;;;;4.53;2.10;;;;;;;28.48;41.42;100516.91;5033947;28;20075;-81
2022/07/19 08:03:01;;;;;;;4.05;1.90;;;;;;;28.53;38.53;100527.44;5030176;28;20148;-80
2022/07/19 08:05:27;;;;;;;4.60;1.90;;;;;;;28.80;38.05;100519.59;5030347;28;20124;-81
2022/07/19 08:07:53;;;;;;;4.22;2.00;;;;;;;28.94;36.63;100523.97;5031727;28;20128;-80
2022/07/19 08:10:20;;;;;;;6.50;2.45;;;;;;;28.28;37.79;100523.28;4997498;28;20033;-81
2022/07/19 08:12:46;;;;;;;4.82;1.90;;;;;;;28.88;37.09;100513.97;5013455;28;20541;-81
2022/07/19 08:15:13;;;;;;;3.40;1.80;;;;;;;29.04;36.97;100507.88;5013879;28;20045;-81
2022/07/19 08:17:38;;;;;;;3.47;1.80;;;;;;;29.23;35.02;100522.00;5013323;28;20030;-81
2022/07/19 08:20:04;;;;;;;3.95;1.77;;;;;;;28.78;35.97;100533.69;5030188;28;20056;-81
2022/07/19 08:22:30;;;;;;;4.55;1.90;;;;;;;28.87;35.37;100521.03;5013538;28;20040;-81
2022/07/19 08:24:56;;;;;;;3.17;1.55;;;;;;;29.24;34.85;100522.78;5013452;28;20093;-81
2022/07/19 08:27:21;;;;;;;3.85;2.00;;;;;;;29.31;33.83;100527.81;5031084;28;20049;-81
2022/07/19 08:29:47;;;;;;;3.03;1.65;;;;;;;29.49;35.24;100530.47;5029987;28;20034;-81
2022/07/19 08:32:12;;;;;;;5.28;1.70;;;;;;;29.41;31.53;100526.75;5029825;28;20563;-81
2022/07/19 08:34:38;;;;;;;4.50;1.80;;;;;;;29.72;31.40;100521.34;5029579;28;20057;-79
2022/07/19 08:37:03;;;;;;;4.07;1.70;;;;;;;29.03;30.96;100539.88;5031118;28;20104;-81
2022/07/19 08:39:29;;;;;;;6.72;1.98;;;;;;;29.38;30.63;100532.84;5029518;28;20042;-80
2022/07/19 08:41:54;;;;;;;4.43;1.70;;;;;;;29.74;29.99;100532.97;5030146;28;20087;-81
2022/07/19 08:44:21;;;;;;;5.13;1.60;;;;;;;29.77;29.37;100531.84;5029992;28;20643;-80
2022/07/19 08:46:48;;;;;;;4.88;3.33;;;;;;;29.94;30.91;100529.34;5029758;28;20060;-80
2022/07/19 08:49:14;;;;;;;5.18;1.52;;;;;;;29.97;26.91;100525.34;5030240;28;20065;-80
2022/07/19 08:51:41;;;;;;;8.35;2.00;;;;;;;30.23;26.49;100530.88;5031028;28;20100;-80
2022/07/19 08:54:06;;;;;;;3.15;1.40;;;;;;;30.36;24.96;100527.91;5013107;28;20514;-80
2022/07/19 08:59:16;;;;;;;4.05;1.50;;;;;;;30.46;25.11;100526.06;5030784;28;20042;-80
2022/07/19 09:01:42;;;;;;;4.30;1.58;;;;;;;30.22;25.26;100532.19;5030661;28;20490;-80
2022/07/19 09:04:13;;;;;;;4.65;1.70;;;;;;;30.38;24.88;100530.94;4993717;28;20044;-80
2022/07/19 09:06:47;;;;;;;4.03;1.50;;;;;;;30.24;26.32;100526.69;5013888;28;20050;-80
2022/07/19 09:09:15;;;;;;;2.45;1.40;;;;;;;30.36;24.68;100516.47;5015769;28;20045;-79
2022/07/19 09:11:50;;;;;;;2.80;1.58;;;;;;;30.28;24.66;100512.78;5033289;28;20124;-80
2022/07/19 09:14:30;;;;;;;4.28;1.50;;;;;;;30.18;25.54;100511.75;5033574;28;20402;-79
2022/07/19 09:17:03;;;;;;;3.15;1.60;;;;;;;30.28;25.11;100520.59;5033818;28;20060;-80
2022/07/19 09:19:30;;;;;;;;;;;;;;;30.78;25.57;100517.03;5034767;28;20045;-80
2022/07/19 09:21:58;;;;;;;6.95;1.52;;;;;;;30.91;25.34;100516.91;5032960;28;20293;-80
2022/07/19 09:24:26;;;;;;;5.68;1.70;;;;;;;30.94;25.43;100523.59;5033365;28;20046;-79
2022/07/19 09:27:03;;;;;;;4.80;1.70;;;;;;;31.38;24.26;100522.19;5016624;28;20033;-79
2022/07/19 09:29:30;;;;;;;3.17;1.48;;;;;;;31.31;24.85;100516.44;5032917;28;20056;-79
2022/07/19 09:32:21;;;;;;;3.13;1.63;;;;;;;31.59;25.11;100518.41;5034772;28;20033;-79
2022/07/19 09:34:51;;;;;;;4.57;1.70;;;;;;;31.75;24.93;100519.94;5032995;28;20049;-81
2022/07/19 09:37:21;;;;;;;4.03;1.70;;;;;;;31.84;23.98;100516.47;5033157;28;20128;-79
2022/07/19 09:39:50;;;;;;;2.28;1.30;;;;;;;31.99;24.62;100516.47;5032678;28;20119;-80
2022/07/19 09:42:24;;;;;;;6.57;1.50;;;;;;;32.26;22.48;100508.22;5033286;28;20104;-80
2022/07/19 09:45:01;;;;;;;3.97;1.38;;;;;;;32.74;23.16;100506.16;5032634;28;20080;-80
2022/07/19 09:47:31;;;;;;;2.78;1.40;;;;;;;32.87;22.20;100514.53;5016874;28;20053;-80
2022/07/19 09:49:56;;;;;;;4.70;1.63;;;;;;;33.02;22.91;100514.44;5000055;28;20128;-80
2022/07/19 09:52:23;;;;;;;5.45;1.70;;;;;;;33.21;25.02;100511.84;5034154;28;20137;-80
2022/07/19 09:54:51;;;;;;;3.30;1.30;;;;;;;33.31;21.86;100514.09;5032048;28;20419;-82
2022/07/19 09:57:22;;;;;;;6.28;1.40;;;;;;;33.13;21.46;100504.63;5033263;28;20046;-82
2022/07/19 09:59:51;;;;;;;2.63;1.55;;;;;;;32.96;21.40;100502.38;5032519;28;20099;-82
2022/07/19 10:02:19;;;;;;;2.60;1.50;;;;;;;33.14;20.95;100501.16;5032444;28;20048;-82
2022/07/19 10:04:44;;;;;;;3.10;1.30;;;;;;;32.89;21.90;100502.44;5036251;28;20041;-82
2022/07/19 10:07:11;;;;;;;4.45;1.42;;;;;;;33.21;20.71;100494.59;5036071;28;20379;-82
2022/07/19 10:09:37;;;;;;;2.97;1.52;;;;;;;33.19;19.88;100497.31;5019209;28;20052;-80
2022/07/19 10:12:02;;;;;;;2.95;1.40;;;;;;;33.50;20.92;100486.34;5035626;28;20124;-82
2022/07/19 10:14:28;;;;;;;2.10;1.40;;;;;;;33.15;20.75;100496.97;5018898;28;20509;-82
2022/07/19 10:16:54;;;;;;;3.17;1.33;;;;;;;33.40;20.59;100493.34;5019317;28;20402;-82
2022/07/19 10:19:41;;;;;;;2.40;1.20;;;;;;;32.99;20.18;100495.50;5053530;28;20056;-83
2022/07/19 10:22:10;;;;;;;2.20;1.55;;;;;;;32.78;19.96;100498.66;5053520;28;20045;-83
2022/07/19 10:24:43;;;;;;;4.22;1.50;;;;;;;33.07;20.37;100484.72;5053091;28;20037;-83
2022/07/19 10:27:09;;;;;;;2.63;1.30;;;;;;;33.35;19.75;100491.44;5053274;28;20041;-82
2022/07/19 10:29:34;;;;;;;2.50;1.30;;;;;;;33.56;19.66;100480.34;5035224;28;20521;-82
2022/07/19 10:32:12;;;;;;;2.45;1.30;;;;;;;33.33;20.15;100488.38;5035742;28;20048;-80
2022/07/19 10:34:39;;;;;;;3.20;1.50;;;;;;;32.97;20.24;100480.94;5018944;28;20527;-83
2022/07/19 10:37:04;;;;;;;1.98;1.17;;;;;;;33.53;20.39;100495.88;5035672;28;20051;-82
2022/07/19 10:39:35;;;;;;;2.92;1.67;;;;;;;33.68;18.96;100482.19;5035453;28;20132;-83
2022/07/19 10:42:16;;;;;;;4.43;1.50;;;;;;;33.40;18.64;100481.81;5034978;28;20049;-82
2022/07/19 10:44:57;;;;;;;2.33;1.27;;;;;;;33.70;20.04;100475.84;5034911;28;20513;-82
2022/07/19 10:47:43;;;;;;;3.28;1.27;;;;;;;33.15;19.22;100484.69;5053259;28;20098;-82
2022/07/19 10:50:08;;;;;;;3.60;1.40;;;;;;;32.66;18.98;100479.59;5052807;28;20406;-83
2022/07/19 10:52:38;;;;;;;3.40;1.30;;;;;;;32.80;19.00;100477.97;5053141;28;20040;-82
2022/07/19 10:55:34;;;;;;;2.75;1.33;;;;;;;33.04;20.37;100471.50;5035105;28;20044;-82
2022/07/19 10:58:06;;;;;;;2.55;1.30;;;;;;;32.75;19.22;100476.09;5052822;28;20063;-83
2022/07/19 11:00:47;;;;;;;2.30;1.20;;;;;;;33.36;18.47;100464.22;5052460;28;20033;-82
2022/07/19 11:03:22;;;;;;;1.95;1.33;;;;;;;33.17;19.00;100471.25;5035304;28;20087;-82
2022/07/19 11:05:49;;;;;;;3.25;1.50;;;;;;;33.58;18.72;100463.25;5052843;28;20449;-82
2022/07/19 11:08:14;;;;;;;2.35;1.30;;;;;;;33.49;17.73;100466.78;5052636;28;20033;-82
2022/07/19 11:10:40;;;;;;;1.58;1.45;;;;;;;33.63;18.58;100459.38;5034709;28;20037;-82
2022/07/19 11:13:05;;;;;;;2.47;1.48;;;;;;;33.84;16.93;100456.91;5034673;28;20394;-79
2022/07/19 11:15:31;;;;;;;2.17;1.30;;;;;;;33.57;19.17;100458.84;5017922;28;20425;-79
2022/07/19 11:18:04;;;;;;;1.63;1.50;;;;;;;33.76;17.56;100450.47;5034749;28;20418;-81
2022/07/19 11:20:32;;;;;;;1.73;1.40;;;;;;;33.71;17.96;100454.34;5017566;28;20059;-80
2022/07/19 11:22:59;;;;;;;2.85;1.27;;;;;;;33.31;18.04;100450.84;5018198;28;20095;-80
2022/07/19 11:25:28;;;;;;;2.67;1.50;;;;;;;33.03;18.97;100449.88;5033736;28;20052;-80
2022/07/19 11:27:53;;;;;;;3.83;1.23;;;;;;;33.10;18.78;100454.78;5033300;28;20486;-80